Time;durP1;ratioP1;P1;durP2;ratioP2;P2;SDS_P1;SDS_P2;PMS_P1;PMS_P2;Temp;Humidity;BMP_temperature;BMP_pressure;BME280_temperature;BME280_humidity;BME280_pressure;Samples;Min_cycle;Max_cycle;Signal;HPM_P1;HPM_P2
2021/06/22 08:07:19;;;;;;;;;;;;;;;38.30;33.86;99395.78;4994403;27;1539057;-54
2021/06/22 08:09:45;;;;;;;;;;;;;;;38.69;31.84;99403.63;5100694;28;11146;-51
2021/06/22 08:12:13;;;;;;;;;;;;;;;38.89;30.69;99395.66;5109683;28;912;-57
2021/06/22 08:14:39;;;;;;;;;;;;;;;38.57;31.49;99392.69;5109134;28;964;-58
2021/06/22 08:17:07;;;;;;;;;;;;;;;38.68;31.27;99390.56;5109814;28;831;-57
2021/06/22 08:19:34;;;;;;;;;;;;;;;39.03;30.79;99396.72;5109647;28;833;-58
2021/06/22 08:22:02;;;;;;;;;;;;;;;39.57;30.04;99396.16;5109360;28;888;-57
2021/06/22 08:24:28;;;;;;;;;;;;;;;40.25;29.13;99391.25;5109043;28;898;-57
2021/06/22 08:26:54;;;;;;;;;;;;;;;40.19;28.41;99400.28;5109195;28;1909;-57
2021/06/22 08:29:20;;;;;;;;;;;;;;;40.38;28.56;99400.16;5109400;28;842;-57
2021/06/22 08:31:47;;;;;;;;;;;;;;;40.55;27.86;99401.22;5109191;28;1192;-57
2021/06/22 08:34:14;;;;;;;;;;;;;;;40.78;27.96;99394.75;5109330;28;972;-57
2021/06/22 08:36:40;;;;;;;;;;;;;;;40.56;27.18;99396.91;5108929;28;874;-57
2021/06/22 08:39:06;;;;;;;;;;;;;;;40.28;27.63;99393.69;5108843;28;805;-57
2021/06/22 08:41:33;;;;;;;;;;;;;;;39.98;28.02;99398.19;5108893;28;862;-57
2021/06/22 08:44:03;;;;;;;;;;;;;;;40.11;27.20;99394.72;5108894;28;848;-57
2021/06/22 08:46:30;;;;;;;;;;;;;;;39.63;27.26;99401.59;5108853;28;1948;-57
2021/06/22 08:48:59;;;;;;;;;;;;;;;39.02;29.35;99400.22;5108973;28;876;-57
2021/06/22 08:51:25;;;;;;;;;;;;;;;39.11;29.28;99397.25;5108658;28;885;-57
2021/06/22 08:53:52;;;;;;;;;;;;;;;39.53;29.02;99395.88;5108670;28;908;-57
2021/06/22 08:56:19;;;;;;;;;;;;;;;39.72;28.94;99395.00;5107430;28;850;-58
2021/06/22 08:58:46;;;;;;;;;;;;;;;39.22;28.47;99407.44;5107585;28;857;-58
2021/06/22 09:01:13;;;;;;;;;;;;;;;37.32;31.09;99406.34;5108881;28;879;-57
2021/06/22 09:03:40;;;;;;;;;;;;;;;34.76;34.87;99408.81;5108710;28;840;-57
2021/06/22 09:06:07;;;;;;;;;;;;;;;32.93;39.09;99410.56;5108186;28;1927;-57
2021/06/22 09:08:33;;;;;;;;;;;;;;;34.35;37.41;99398.66;5108318;28;884;-57
2021/06/22 09:11:10;;;;;;;;;;;;;;;36.59;32.51;99402.00;5108532;28;941;-57
2021/06/22 09:13:39;;;;;;;;;;;;;;;37.71;30.26;99414.38;5108206;28;926;-57
2021/06/22 09:16:14;;;;;;;;;;;;;;;37.72;30.37;99413.00;5108174;28;888;-58
2021/06/22 09:18:45;;;;;;;;;;;;;;;38.65;28.52;99409.88;5095615;28;778;-57
2021/06/22 09:21:14;;;;;;;;;;;;;;;37.97;29.72;99413.50;5094736;28;896;-57
2021/06/22 09:23:42;;;;;;;;;;;;;;;37.12;30.90;99422.03;5094445;28;897;-57
2021/06/22 09:26:12;;;;;;;;;;;;;;;36.36;32.11;99415.91;5094365;28;1959;-57
2021/06/22 09:28:40;;;;;;;;;;;;;;;37.57;30.73;99417.66;5094478;28;821;-57
2021/06/22 09:31:08;;;;;;;;;;;;;;;39.28;28.46;99402.06;5094307;28;861;-57
2021/06/22 09:33:34;;;;;;;;;;;;;;;40.17;27.40;99403.81;5094301;28;842;-57
2021/06/22 09:36:09;;;;;;;;;;;;;;;41.17;27.18;99409.53;5094202;28;929;-57
2021/06/22 09:38:54;;;;;;;;;;;;;;;41.17;26.06;99408.78;5094066;28;839;-58
2021/06/22 09:41:23;;;;;;;;;;;;;;;40.85;26.20;99398.78;5094223;28;858;-58
2021/06/22 09:43:51;;;;;;;;;;;;;;;40.53;26.22;99404.72;5094009;28;1039;-58
2021/06/22 09:46:30;;;;;;;;;;;;;;;40.61;26.24;99398.72;5094026;28;1947;-57
2021/06/22 09:48:58;;;;;;;;;;;;;;;40.98;26.10;99398.91;5093911;28;1048;-57
2021/06/22 09:51:32;;;;;;;;;;;;;;;41.20;25.08;99393.78;5093900;28;1199;-58
2021/06/22 09:54:14;;;;;;;;;;;;;;;41.07;25.74;99385.69;5093920;28;861;-56
2021/06/22 09:56:56;;;;;;;;;;;;;;;40.58;26.71;99383.31;5092576;28;901;-57
2021/06/22 09:59:23;;;;;;;;;;;;;;;40.81;25.14;99376.09;5094041;28;814;-57
2021/06/22 10:01:52;;;;;;;;;;;;;;;39.78;26.53;99374.41;5093710;28;971;-57
2021/06/22 10:04:23;;;;;;;;;;;;;;;39.07;27.36;99371.00;5093679;28;869;-57
2021/06/22 10:06:54;;;;;;;;;;;;;;;39.33;29.16;99365.56;5093091;28;1877;-57
2021/06/22 10:09:24;;;;;;;;;;;;;;;39.50;28.22;99362.44;5093628;28;1014;-57
2021/06/22 10:11:58;;;;;;;;;;;;;;;39.41;27.62;99366.13;5093723;28;953;-57
2021/06/22 10:14:29;;;;;;;;;;;;;;;40.24;27.70;99360.78;5093478;28;1202;-56
2021/06/22 10:16:57;;;;;;;;;;;;;;;40.78;27.33;99366.53;5093402;28;900;-57
2021/06/22 10:19:24;;;;;;;;;;;;;;;38.47;28.73;99362.31;5093644;28;901;-57
2021/06/22 10:21:50;;;;;;;;;;;;;;;35.88;31.77;99359.50;5093675;28;877;-57
2021/06/22 10:24:18;;;;;;;;;;;;;;;34.25;34.46;99358.34;5093199;28;904;-56
2021/06/22 10:26:46;;;;;;;;;;;;;;;34.66;34.80;99350.53;5093234;28;1971;-56
2021/06/22 10:29:16;;;;;;;;;;;;;;;37.15;31.09;99355.34;5092190;28;885;-57
2021/06/22 10:31:42;;;;;;;;;;;;;;;39.05;28.50;99347.75;5093168;28;871;-57
2021/06/22 10:34:09;;;;;;;;;;;;;;;39.70;28.34;99353.63;5093136;28;794;-57
2021/06/22 10:36:39;;;;;;;;;;;;;;;39.48;28.00;99355.75;5093000;28;849;-57
2021/06/22 10:39:08;;;;;;;;;;;;;;;40.40;27.42;99356.09;5093003;28;794;-57
2021/06/22 10:41:37;;;;;;;;;;;;;;;41.78;25.26;99363.22;5092928;28;862;-57
2021/06/22 10:44:07;;;;;;;;;;;;;;;41.90;24.76;99357.38;5093141;28;838;-56
2021/06/22 10:46:34;;;;;;;;;;;;;;;40.90;26.10;99363.63;5093036;28;1890;-55
2021/06/22 10:49:16;;;;;;;;;;;;;;;39.51;28.51;99363.94;5093099;28;801;-57
2021/06/22 10:51:43;;;;;;;;;;;;;;;37.21;31.30;99357.19;5092858;28;789;-57
2021/06/22 10:54:13;;;;;;;;;;;;;;;35.97;33.43;99355.19;5093035;28;868;-57
2021/06/22 10:56:44;;;;;;;;;;;;;;;35.03;35.73;99350.06;5092684;28;941;-56
2021/06/22 10:59:14;;;;;;;;;;;;;;;34.49;35.97;99359.75;5092837;28;822;-56
2021/06/22 11:01:50;;;;;;;;;;;;;;;34.12;36.95;99347.91;5092844;28;881;-56
2021/06/22 11:04:18;;;;;;;;;;;;;;;34.71;35.41;99346.66;5092481;28;850;-56
2021/06/22 11:07:15;;;;;;;;;;;;;;;37.21;32.53;99343.53;5091975;28;1996;-57
2021/06/22 11:09:42;;;;;;;;;;;;;;;39.28;28.35;99335.59;5092461;28;862;-57
2021/06/22 11:12:21;;;;;;;;;;;;;;;39.44;27.94;99341.78;5092335;28;957;-57
2021/06/22 11:15:00;;;;;;;;;;;;;;;39.52;27.87;99332.88;5092303;28;867;-57
2021/06/22 11:17:42;;;;;;;;;;;;;;;40.72;26.88;99340.06;5092263;28;992;-57
2021/06/22 11:20:15;;;;;;;;;;;;;;;41.59;25.14;99335.28;5092470;28;945;-55
2021/06/22 11:23:02;;;;;;;;;;;;;;;39.41;27.55;99340.09;5092234;28;916;-55
2021/06/22 11:25:46;;;;;;;;;;;;;;;37.14;30.51;99348.06;5092044;28;1901;-56
2021/06/22 11:28:15;;;;;;;;;;;;;;;36.95;32.31;99345.09;5092244;28;920;-56
2021/06/22 11:30:52;;;;;;;;;;;;;;;38.32;29.44;99329.53;5092106;28;810;-57
2021/06/22 11:33:46;;;;;;;;;;;;;;;39.26;27.94;99331.81;5090774;28;1483;-57
2021/06/22 11:36:15;;;;;;;;;;;;;;;39.30;28.26;99329.19;5091957;28;822;-57
2021/06/22 11:38:43;;;;;;;;;;;;;;;39.06;27.74;99328.28;5090860;28;2267;-57
2021/06/22 11:41:16;;;;;;;;;;;;;;;39.13;27.66;99330.97;5091905;28;850;-55
2021/06/22 11:44:01;;;;;;;;;;;;;;;39.93;28.25;99319.03;5091886;28;841;-55
2021/06/22 11:46:30;;;;;;;;;;;;;;;40.92;26.58;99323.19;5091854;28;1889;-55
2021/06/22 11:48:57;;;;;;;;;;;;;;;41.72;25.41;99325.16;5090615;28;920;-55
2021/06/22 11:51:42;;;;;;;;;;;;;;;42.20;25.01;99325.72;5091995;28;889;-55
2021/06/22 11:54:09;;;;;;;;;;;;;;;43.04;23.74;99321.66;5091830;28;926;-55
2021/06/22 11:56:35;;;;;;;;;;;;;;;43.12;23.45;99327.13;5091736;28;826;-56
2021/06/22 11:59:02;;;;;;;;;;;;;;;40.78;26.08;99322.31;5091779;28;865;-55
2021/06/22 12:01:29;;;;;;;;;;;;;;;40.62;25.87;99311.19;5091613;28;896;-55
2021/06/22 12:03:56;;;;;;;;;;;;;;;41.49;24.28;99320.13;5091630;28;956;-55
2021/06/22 12:06:22;;;;;;;;;;;;;;;40.91;25.21;99295.63;5091270;28;1897;-55
2021/06/22 12:08:49;;;;;;;;;;;;;;;39.37;27.15;99310.91;5090590;28;1243;-55
2021/06/22 12:11:28;;;;;;;;;;;;;;;38.21;28.40;99298.41;5091759;28;850;-55
2021/06/22 12:13:58;;;;;;;;;;;;;;;39.34;28.70;99304.22;5091824;28;944;-57
2021/06/22 12:16:25;;;;;;;;;;;;;;;40.97;27.12;99306.81;5091480;28;857;-57
2021/06/22 12:19:02;;;;;;;;;;;;;;;41.75;25.12;99305.72;5091807;28;850;-57
2021/06/22 12:21:29;;;;;;;;;;;;;;;41.76;23.90;99307.22;5091451;28;877;-56
2021/06/22 12:24:05;;;;;;;;;;;;;;;41.69;24.62;99302.44;5091376;28;885;-55
2021/06/22 12:26:33;;;;;;;;;;;;;;;39.53;27.00;99288.16;5091381;28;1889;-55
2021/06/22 12:28:59;;;;;;;;;;;;;;;37.38;30.43;99288.69;5091370;28;901;-57
2021/06/22 12:31:26;;;;;;;;;;;;;;;35.44;34.35;99299.00;5091631;28;916;-57
2021/06/22 12:33:58;;;;;;;;;;;;;;;35.36;34.05;99294.09;5091443;28;890;-57
2021/06/22 12:36:31;;;;;;;;;;;;;;;35.42;33.12;99291.00;5091319;28;909;-56
2021/06/22 12:38:59;;;;;;;;;;;;;;;36.06;34.55;99293.34;5091370;28;822;-56
2021/06/22 12:41:29;;;;;;;;;;;;;;;36.94;31.88;99301.13;5091308;28;925;-57
2021/06/22 12:43:56;;;;;;;;;;;;;;;37.73;31.17;99299.97;5091353;28;939;-57
2021/06/22 12:46:24;;;;;;;;;;;;;;;38.48;29.88;99294.56;5091310;28;1886;-57
2021/06/22 12:48:58;;;;;;;;;;;;;;;37.12;30.78;99301.06;5091287;28;959;-57
2021/06/22 12:51:25;;;;;;;;;;;;;;;35.28;33.11;99301.28;5091254;28;864;-57
2021/06/22 12:53:52;;;;;;;;;;;;;;;34.37;33.63;99304.19;5094377;28;947;-56
2021/06/22 12:56:20;;;;;;;;;;;;;;;34.62;34.69;99306.34;5094948;28;942;-56
2021/06/22 12:58:52;;;;;;;;;;;;;;;35.93;31.89;99298.13;5094952;28;932;-56
2021/06/22 13:01:37;;;;;;;;;;;;;;;37.45;31.02;99295.69;5095122;28;933;-56
2021/06/22 13:04:05;;;;;;;;;;;;;;;38.68;29.83;99295.28;5095030;28;849;-57
2021/06/22 13:06:35;;;;;;;;;;;;;;;39.67;28.55;99294.91;5094515;28;1887;-57
2021/06/22 13:09:07;;;;;;;;;;;;;;;39.44;27.67;99289.00;5093533;28;860;-57
2021/06/22 13:11:35;;;;;;;;;;;;;;;38.87;27.06;99289.41;5094680;28;1032;-55
2021/06/22 13:14:08;;;;;;;;;;;;;;;37.99;27.78;99280.97;5094682;28;865;-55
2021/06/22 13:16:35;;;;;;;;;;;;;;;37.22;29.22;99278.81;5094631;28;913;-57
2021/06/22 13:19:03;;;;;;;;;;;;;;;36.99;31.17;99284.94;5094522;28;928;-57
2021/06/22 13:21:46;;;;;;;;;;;;;;;37.50;30.45;99280.19;5094762;28;939;-57
2021/06/22 13:24:14;;;;;;;;;;;;;;;38.11;29.20;99277.47;5094472;28;794;-56
2021/06/22 13:26:42;;;;;;;;;;;;;;;38.65;28.35;99276.31;5093231;28;1890;-55
2021/06/22 13:29:09;;;;;;;;;;;;;;;38.93;27.72;99280.41;5094360;28;920;-55
2021/06/22 13:31:35;;;;;;;;;;;;;;;39.44;26.95;99286.84;5094383;28;1007;-55
2021/06/22 13:34:04;;;;;;;;;;;;;;;39.53;25.98;99279.47;5094327;28;838;-55
2021/06/22 13:36:32;;;;;;;;;;;;;;;39.25;25.91;99273.25;5094211;28;964;-56
2021/06/22 13:39:12;;;;;;;;;;;;;;;39.05;26.28;99275.53;5094216;28;810;-55
2021/06/22 13:41:45;;;;;;;;;;;;;;;38.24;28.07;99273.34;5092810;28;706;-55
2021/06/22 13:44:12;;;;;;;;;;;;;;;37.94;28.34;99266.84;5092875;28;1186;-55
2021/06/22 13:46:39;;;;;;;;;;;;;;;38.29;28.27;99266.53;5093917;28;1878;-55
2021/06/22 13:49:07;;;;;;;;;;;;;;;38.96;27.51;99267.66;5094078;28;1174;-55
2021/06/22 13:51:35;;;;;;;;;;;;;;;39.23;26.68;99264.44;5092691;28;820;-55
2021/06/22 13:54:03;;;;;;;;;;;;;;;39.91;26.94;99263.19;5093820;28;881;-55
2021/06/22 13:56:30;;;;;;;;;;;;;;;40.24;25.51;99260.25;5093877;28;789;-56
2021/06/22 13:58:57;;;;;;;;;;;;;;;39.28;26.45;99263.34;5093806;28;1102;-55
2021/06/22 14:01:24;;;;;;;;;;;;;;;38.21;28.18;99258.03;5093740;28;838;-55
2021/06/22 14:03:54;;;;;;;;;;;;;;;38.73;28.77;99265.31;5093826;28;829;-55
2021/06/22 14:06:21;;;;;;;;;;;;;;;39.67;27.86;99265.97;5093428;28;1992;-55
2021/06/22 14:08:48;;;;;;;;;;;;;;;40.28;27.17;99266.34;5093507;28;951;-55
2021/06/22 14:11:15;;;;;;;;;;;;;;;40.52;26.26;99263.47;5093580;28;870;-55
2021/06/22 14:13:42;;;;;;;;;;;;;;;40.21;26.25;99264.41;5093555;28;782;-55
2021/06/22 14:16:08;;;;;;;;;;;;;;;40.17;26.98;99273.56;5093453;28;845;-56
2021/06/22 14:18:36;;;;;;;;;;;;;;;40.35;26.56;99271.13;5093390;28;940;-56
2021/06/22 14:21:03;;;;;;;;;;;;;;;39.57;26.08;99268.19;5093365;28;889;-55
2021/06/22 14:23:29;;;;;;;;;;;;;;;38.98;27.22;99262.75;5093234;28;906;-56
2021/06/22 14:25:57;;;;;;;;;;;;;;;38.70;28.04;99267.28;5093240;28;1960;-56
2021/06/22 14:28:24;;;;;;;;;;;;;;;38.16;29.01;99268.53;5093533;28;870;-55
2021/06/22 14:30:53;;;;;;;;;;;;;;;37.55;30.56;99263.97;5093133;28;968;-55
2021/06/22 14:33:20;;;;;;;;;;;;;;;37.74;31.08;99269.00;5093672;28;789;-55
2021/06/22 14:35:46;;;;;;;;;;;;;;;38.50;29.38;99275.28;5093232;28;1034;-56
2021/06/22 14:38:13;;;;;;;;;;;;;;;38.84;28.78;99273.31;5093239;28;846;-56
2021/06/22 14:40:41;;;;;;;;;;;;;;;38.77;28.20;99275.03;5092986;28;861;-56
2021/06/22 14:43:08;;;;;;;;;;;;;;;38.27;28.85;99270.00;5093722;28;789;-55
2021/06/22 14:45:35;;;;;;;;;;;;;;;37.18;33.02;99275.59;5092864;28;1981;-56
2021/06/22 14:48:03;;;;;;;;;;;;;;;36.31;35.59;99281.72;5093300;28;846;-55
2021/06/22 14:50:31;;;;;;;;;;;;;;;36.01;36.46;99268.50;5093560;28;788;-56
2021/06/22 14:52:58;;;;;;;;;;;;;;;35.40;37.52;99267.06;5093160;28;1053;-55
2021/06/22 14:55:29;;;;;;;;;;;;;;;34.95;38.86;99266.88;5092970;28;949;-57
2021/06/22 14:57:56;;;;;;;;;;;;;;;34.88;39.16;99268.47;5092899;28;1258;-57
2021/06/22 15:00:23;;;;;;;;;;;;;;;34.76;39.81;99268.19;5074559;28;1218;-57
2021/06/22 15:02:50;;;;;;;;;;;;;;;34.49;40.61;99273.69;5092520;28;786;-57
2021/06/22 15:05:17;;;;;;;;;;;;;;;34.38;41.35;99267.69;5092175;28;1975;-56
2021/06/22 15:07:44;;;;;;;;;;;;;;;34.01;42.15;99272.97;5092575;28;821;-57
2021/06/22 15:10:10;;;;;;;;;;;;;;;32.86;44.22;99273.94;5092513;28;819;-57
2021/06/22 15:12:37;;;;;;;;;;;;;;;32.27;45.45;99266.97;5092474;28;798;-57
2021/06/22 15:15:04;;;;;;;;;;;;;;;32.69;44.70;99272.41;5092000;28;810;-57
2021/06/22 15:17:31;;;;;;;;;;;;;;;33.23;44.41;99278.16;5092542;28;857;-57
2021/06/22 15:19:58;;;;;;;;;;;;;;;33.27;43.62;99281.41;5092526;28;882;-57
2021/06/22 15:22:25;;;;;;;;;;;;;;;32.89;44.51;99281.38;5092226;28;920;-57
2021/06/22 15:24:52;;;;;;;;;;;;;;;32.80;44.87;99279.84;5092235;28;869;-56
2021/06/22 15:27:18;;;;;;;;;;;;;;;32.97;45.32;99282.16;5092079;28;1889;-57
2021/06/22 15:29:44;;;;;;;;;;;;;;;32.90;44.47;99271.44;5092063;28;889;-57
2021/06/22 15:32:11;;;;;;;;;;;;;;;32.04;44.90;99284.03;5092041;28;919;-57
2021/06/22 15:34:37;;;;;;;;;;;;;;;31.01;47.69;99295.16;5092066;28;867;-57
2021/06/22 15:37:04;;;;;;;;;;;;;;;30.17;50.09;99295.00;5092257;28;830;-57
2021/06/22 15:39:31;;;;;;;;;;;;;;;29.65;51.91;99288.84;5092219;28;876;-56
2021/06/22 15:41:58;;;;;;;;;;;;;;;29.25;52.74;99285.97;5092052;28;925;-56
2021/06/22 15:44:24;;;;;;;;;;;;;;;29.08;54.03;99291.94;5092075;28;970;-56
2021/06/22 15:46:51;;;;;;;;;;;;;;;28.83;54.74;99292.09;5092007;28;1890;-56
2021/06/22 15:49:20;;;;;;;;;;;;;;;28.57;55.49;99289.16;5091999;28;929;-56
2021/06/22 15:51:47;;;;;;;;;;;;;;;28.55;56.52;99303.13;5091792;28;862;-57
2021/06/22 15:54:13;;;;;;;;;;;;;;;28.58;56.47;99307.75;5091862;28;857;-56
2021/06/22 15:56:40;;;;;;;;;;;;;;;29.04;55.60;99303.66;5091830;28;881;-57
2021/06/22 16:02:09;;;;;;;;;;;;;;;29.25;54.24;99300.19;5091635;28;613;-57
2021/06/22 16:04:36;;;;;;;;;;;;;;;28.98;54.24;99302.22;5091663;28;794;-56
2021/06/22 16:07:03;;;;;;;;;;;;;;;28.57;55.62;99307.00;5091262;28;1914;-56
2021/06/22 16:09:29;;;;;;;;;;;;;;;28.21;56.91;99303.63;5091615;28;897;-56
2021/06/22 16:11:56;;;;;;;;;;;;;;;27.96;57.09;99311.44;5091593;28;833;-56
2021/06/22 16:14:23;;;;;;;;;;;;;;;27.72;57.18;99315.03;5091605;28;787;-56
2021/06/22 16:16:50;;;;;;;;;;;;;;;27.48;57.91;99325.88;5091477;28;957;-56
2021/06/22 16:19:17;;;;;;;;;;;;;;;27.40;58.31;99324.94;5091487;28;986;-56
2021/06/22 16:21:43;;;;;;;;;;;;;;;27.35;59.02;99336.31;5091448;28;870;-56
2021/06/22 16:24:10;;;;;;;;;;;;;;;27.29;58.89;99339.25;5091673;28;806;-56
2021/06/22 16:26:37;;;;;;;;;;;;;;;27.33;58.69;99348.19;5091414;28;1894;-56
2021/06/22 16:29:04;;;;;;;;;;;;;;;27.12;59.16;99345.03;5095315;28;853;-56
2021/06/22 16:31:31;;;;;;;;;;;;;;;27.02;59.65;99347.41;5095554;28;821;-56
2021/06/22 16:34:00;;;;;;;;;;;;;;;27.00;60.52;99350.00;5095471;28;873;-56
2021/06/22 16:36:27;;;;;;;;;;;;;;;26.98;59.93;99357.50;5095409;28;886;-55
2021/06/22 16:41:58;;;;;;;;;;;;;;;27.04;60.11;99359.00;5072986;28;984;-55
2021/06/22 16:44:25;;;;;;;;;;;;;;;27.13;60.47;99365.66;5072923;28;906;-55
2021/06/22 16:46:55;;;;;;;;;;;;;;;27.11;60.25;99363.34;5072758;28;1902;-55
2021/06/22 16:49:23;;;;;;;;;;;;;;;27.15;60.35;99363.06;5072793;28;881;-56
2021/06/22 16:51:48;;;;;;;;;;;;;;;27.18;59.84;99365.59;5072670;28;1157;-55
2021/06/22 16:54:15;;;;;;;;;;;;;;;27.02;60.29;99370.09;5072645;28;938;-55
2021/06/22 16:56:41;;;;;;;;;;;;;;;26.80;60.01;99359.72;5072607;28;790;-56
2021/06/22 16:59:08;;;;;;;;;;;;;;;26.60;60.20;99358.03;5072535;28;1115;-55
2021/06/22 17:01:34;;;;;;;;;;;;;;;26.45;60.78;99358.34;5072450;28;877;-56
2021/06/22 17:04:01;;;;;;;;;;;;;;;26.36;61.03;99369.22;5072562;28;806;-55
2021/06/22 17:06:28;;;;;;;;;;;;;;;26.30;61.34;99365.66;5072088;28;1898;-55
2021/06/22 17:08:55;;;;;;;;;;;;;;;26.12;60.63;99370.63;5072311;28;956;-55
2021/06/22 17:11:20;;;;;;;;;;;;;;;25.94;61.17;99371.19;5072380;28;1001;-56
2021/06/22 17:13:47;;;;;;;;;;;;;;;25.77;61.49;99374.03;5072312;28;909;-55
2021/06/22 17:16:14;;;;;;;;;;;;;;;25.60;61.58;99376.91;5072255;28;858;-55
2021/06/22 17:18:41;;;;;;;;;;;;;;;25.43;61.94;99383.38;5073381;28;1020;-55
2021/06/22 17:21:07;;;;;;;;;;;;;;;25.29;63.32;99381.59;5074457;28;818;-55
2021/06/22 17:23:34;;;;;;;;;;;;;;;25.23;63.44;99383.66;5072972;28;1351;-55
2021/06/22 17:26:01;;;;;;;;;;;;;;;25.14;64.58;99376.16;5074159;28;1918;-55
2021/06/22 17:28:28;;;;;;;;;;;;;;;24.99;65.86;99373.59;5073036;28;916;-55
2021/06/22 17:30:55;;;;;;;;;;;;;;;24.83;67.01;99377.16;5073941;28;1021;-55
2021/06/22 17:33:23;;;;;;;;;;;;;;;24.67;67.93;99384.34;5074228;28;806;-55
2021/06/22 17:35:49;;;;;;;;;;;;;;;24.45;68.63;99385.00;5073979;28;921;-55
2021/06/22 17:38:17;;;;;;;;;;;;;;;24.20;69.43;99379.03;5073530;28;811;-55
2021/06/22 17:40:46;;;;;;;;;;;;;;;24.03;70.21;99373.31;5073952;28;1202;-54
2021/06/22 17:43:13;;;;;;;;;;;;;;;23.88;70.01;99372.72;5073998;28;881;-55
2021/06/22 17:45:41;;;;;;;;;;;;;;;23.77;70.57;99381.91;5073861;28;2241;-55
2021/06/22 17:48:08;;;;;;;;;;;;;;;23.60;71.07;99375.38;5073742;28;949;-55
2021/06/22 17:50:35;;;;;;;;;;;;;;;23.49;71.09;99378.09;5073867;28;830;-55
2021/06/22 17:53:01;;;;;;;;;;;;;;;23.39;71.35;99380.34;5073613;28;909;-55
2021/06/22 17:55:33;;;;;;;;;;;;;;;23.26;71.85;99383.59;5073662;28;889;-54
2021/06/22 17:58:01;;;;;;;;;;;;;;;22.98;72.87;99401.00;5073602;28;920;-54
2021/06/22 18:00:30;;;;;;;;;;;;;;;22.93;73.12;99400.94;5072205;28;1291;-54
2021/06/22 18:02:56;;;;;;;;;;;;;;;22.98;73.05;99403.03;5073485;28;842;-54
2021/06/22 18:05:23;;;;;;;;;;;;;;;22.93;72.74;99398.88;5075682;28;1969;-54
2021/06/22 18:07:50;;;;;;;;;;;;;;;22.96;72.44;99406.34;5093723;28;813;-54
2021/06/22 18:10:17;;;;;;;;;;;;;;;23.02;71.85;99410.03;5093831;28;874;-54
2021/06/22 18:12:45;;;;;;;;;;;;;;;23.02;71.58;99404.41;5093724;28;830;-53
2021/06/22 18:15:13;;;;;;;;;;;;;;;22.92;71.31;99402.22;5093501;28;921;-53
2021/06/22 18:17:40;;;;;;;;;;;;;;;22.79;71.77;99411.06;5093850;28;793;-54
2021/06/22 18:20:08;;;;;;;;;;;;;;;22.61;72.13;99418.53;5093469;28;818;-53
2021/06/22 18:22:36;;;;;;;;;;;;;;;22.51;71.99;99431.25;5093562;28;893;-53
2021/06/22 18:25:03;;;;;;;;;;;;;;;22.50;71.50;99423.28;5093793;28;830;-54
2021/06/22 18:27:30;;;;;;;;;;;;;;;22.53;71.34;99423.06;5093537;28;1890;-55
2021/06/22 18:29:57;;;;;;;;;;;;;;;22.53;70.94;99423.06;5093340;28;948;-54
2021/06/22 18:32:24;;;;;;;;;;;;;;;22.46;70.88;99431.94;5093476;28;830;-54
2021/06/22 18:34:51;;;;;;;;;;;;;;;22.33;71.33;99431.53;5093678;28;845;-54
2021/06/22 18:37:17;;;;;;;;;;;;;;;22.27;71.27;99428.63;5093275;28;861;-54
2021/06/22 18:39:43;;;;;;;;;;;;;;;22.32;70.96;99436.38;5093734;28;766;-54
2021/06/22 18:42:10;;;;;;;;;;;;;;;22.38;70.71;99436.44;5092990;28;870;-54
2021/06/22 18:44:36;;;;;;;;;;;;;;;22.44;70.42;99431.66;5092925;28;978;-54
2021/06/22 18:47:03;;;;;;;;;;;;;;;22.51;70.07;99439.69;5092897;28;1882;-54
2021/06/22 18:49:29;;;;;;;;;;;;;;;22.56;69.75;99438.97;5092449;28;822;-54
2021/06/22 18:51:56;;;;;;;;;;;;;;;22.63;69.09;99449.78;5092425;28;833;-55
2021/06/22 18:54:23;;;;;;;;;;;;;;;22.72;68.92;99451.69;5092801;28;909;-54
2021/06/22 18:56:50;;;;;;;;;;;;;;;22.81;68.69;99453.59;5092717;28;825;-55
2021/06/22 18:59:16;;;;;;;;;;;;;;;22.90;68.18;99450.59;5092620;28;830;-55
2021/06/22 19:01:44;;;;;;;;;;;;;;;23.00;67.53;99452.03;5092600;28;920;-53
2021/06/22 19:04:11;;;;;;;;;;;;;;;23.01;67.89;99461.25;5092635;28;803;-54
2021/06/22 19:06:37;;;;;;;;;;;;;;;22.97;68.02;99452.97;5092282;28;1902;-55
2021/06/22 19:09:04;;;;;;;;;;;;;;;22.95;67.30;99460.38;5092428;28;893;-54
2021/06/22 19:11:33;;;;;;;;;;;;;;;22.90;67.75;99458.28;5092495;28;934;-54
2021/06/22 19:14:01;;;;;;;;;;;;;;;22.70;68.15;99457.03;5091094;28;1194;-55
2021/06/22 19:16:28;;;;;;;;;;;;;;;22.53;69.03;99459.69;5092330;28;885;-55
2021/06/22 19:18:55;;;;;;;;;;;;;;;22.41;69.80;99450.31;5092406;28;892;-54
2021/06/22 19:21:22;;;;;;;;;;;;;;;22.31;70.40;99448.91;5092338;28;880;-55
2021/06/22 19:23:49;;;;;;;;;;;;;;;22.27;70.73;99445.50;5092284;28;900;-54
2021/06/22 19:26:15;;;;;;;;;;;;;;;22.21;70.86;99439.81;5092121;28;1886;-54
2021/06/22 19:28:43;;;;;;;;;;;;;;;22.12;71.13;99442.72;5092137;28;850;-54
2021/06/22 19:31:10;;;;;;;;;;;;;;;22.03;71.41;99445.69;5092073;28;920;-55
2021/06/22 19:33:37;;;;;;;;;;;;;;;21.92;71.68;99453.97;5092045;28;873;-54
2021/06/22 19:36:03;;;;;;;;;;;;;;;21.87;71.59;99449.81;5092392;28;806;-53
2021/06/22 19:38:30;;;;;;;;;;;;;;;21.81;71.50;99446.16;5091902;28;893;-55
2021/06/22 19:40:58;;;;;;;;;;;;;;;21.78;71.61;99449.94;5091993;28;794;-54
2021/06/22 19:43:25;;;;;;;;;;;;;;;21.71;72.05;99447.53;5091901;28;930;-54
2021/06/22 19:45:51;;;;;;;;;;;;;;;21.62;72.16;99439.97;5091775;28;1951;-55
2021/06/22 19:48:18;;;;;;;;;;;;;;;21.57;71.97;99449.09;5091904;28;821;-53
2021/06/22 19:50:45;;;;;;;;;;;;;;;21.53;72.20;99446.50;5091830;28;904;-54
2021/06/22 19:53:12;;;;;;;;;;;;;;;21.55;72.06;99445.97;5091889;28;869;-54
2021/06/22 19:55:39;;;;;;;;;;;;;;;21.52;72.01;99438.53;5091826;28;850;-54
2021/06/22 19:58:05;;;;;;;;;;;;;;;21.45;71.80;99442.53;5091664;28;795;-54
2021/06/22 20:00:31;;;;;;;;;;;;;;;21.39;72.04;99448.00;5091729;28;893;-53
2021/06/22 20:02:58;;;;;;;;;;;;;;;21.35;71.78;99447.44;5091565;28;849;-55
2021/06/22 20:05:25;;;;;;;;;;;;;;;21.36;71.78;99453.84;5091207;28;1894;-54
2021/06/22 20:07:51;;;;;;;;;;;;;;;21.36;71.60;99448.22;5091732;28;798;-54
2021/06/22 20:10:18;;;;;;;;;;;;;;;21.33;71.45;99461.19;5091663;28;849;-54
2021/06/22 20:12:46;;;;;;;;;;;;;;;21.32;71.50;99464.50;5091580;28;885;-54
2021/06/22 20:15:13;;;;;;;;;;;;;;;21.26;71.67;99460.84;5091573;28;885;-53
2021/06/22 20:17:39;;;;;;;;;;;;;;;21.21;71.67;99465.09;5091566;28;916;-54
2021/06/22 20:20:06;;;;;;;;;;;;;;;21.15;72.02;99450.16;5091560;28;802;-54
2021/06/22 20:22:33;;;;;;;;;;;;;;;21.14;71.62;99466.22;5090390;28;893;-54
2021/06/22 20:25:00;;;;;;;;;;;;;;;21.13;71.82;99469.53;5091484;28;842;-54
2021/06/22 20:27:26;;;;;;;;;;;;;;;21.04;72.05;99461.97;5091241;28;1947;-54
2021/06/22 20:29:53;;;;;;;;;;;;;;;21.02;72.41;99464.50;5091406;28;858;-54
2021/06/22 20:32:19;;;;;;;;;;;;;;;20.99;72.33;99459.84;5091467;28;841;-54
2021/06/22 20:34:46;;;;;;;;;;;;;;;20.95;72.54;99448.81;5091372;28;917;-53
2021/06/22 20:37:13;;;;;;;;;;;;;;;20.92;72.84;99444.13;5091404;28;794;-54
2021/06/22 20:39:40;;;;;;;;;;;;;;;20.94;72.51;99446.47;5091346;28;920;-54
2021/06/22 20:42:07;;;;;;;;;;;;;;;21.01;72.42;99446.06;5091335;28;826;-54
2021/06/22 20:44:34;;;;;;;;;;;;;;;21.07;72.41;99438.53;5091278;28;881;-54
2021/06/22 20:47:01;;;;;;;;;;;;;;;21.10;72.07;99436.78;5091234;28;1878;-54
2021/06/22 20:49:28;;;;;;;;;;;;;;;21.09;72.19;99444.44;5091351;28;881;-54
2021/06/22 20:51:55;;;;;;;;;;;;;;;21.07;72.40;99440.56;5091219;28;834;-54
2021/06/22 20:54:21;;;;;;;;;;;;;;;21.08;72.18;99437.28;5091253;28;810;-54
2021/06/22 20:56:48;;;;;;;;;;;;;;;21.07;72.39;99427.28;5091062;28;929;-54
2021/06/22 20:59:15;;;;;;;;;;;;;;;21.03;72.83;99417.50;5091174;28;1671;-54
2021/06/22 21:01:42;;;;;;;;;;;;;;;20.91;73.30;99422.13;5091216;28;857;-54
2021/06/22 21:04:08;;;;;;;;;;;;;;;20.86;73.75;99425.63;5091136;28;853;-53
2021/06/22 21:06:36;;;;;;;;;;;;;;;20.89;73.94;99421.84;5090811;28;2004;-54
2021/06/22 21:09:03;;;;;;;;;;;;;;;20.92;73.89;99418.84;5091027;28;830;-54
2021/06/22 21:11:29;;;;;;;;;;;;;;;20.93;73.81;99420.41;5089880;28;826;-54
2021/06/22 21:13:56;;;;;;;;;;;;;;;20.93;74.15;99423.22;5092654;28;846;-54
2021/06/22 21:16:23;;;;;;;;;;;;;;;20.87;74.53;99427.97;5094606;28;941;-53
2021/06/22 21:18:50;;;;;;;;;;;;;;;20.80;74.89;99428.31;5094836;28;861;-53
2021/06/22 21:21:17;;;;;;;;;;;;;;;20.77;75.13;99426.50;5094799;28;839;-53
2021/06/22 21:23:43;;;;;;;;;;;;;;;20.74;75.42;99419.03;5094557;28;838;-54